Time;durP1;ratioP1;P1;durP2;ratioP2;P2;SDS_P1;SDS_P2;PMS_P1;PMS_P2;Temp;Humidity;BMP_temperature;BMP_pressure;BME280_temperature;BME280_humidity;BME280_pressure;Samples;Min_cycle;Max_cycle;Signal;HPM_P1;HPM_P2
2021/03/03 00:05:26;;;;;;;8.77;3.40;;;27.20;71.00;;;;;;5511202;23;20038;-93
2021/03/03 00:11:29;;;;;;;;;;;;;;;;;;;;;
2021/03/03 00:21:26;;;;;;;8.30;3.33;;;26.80;72.90;;;;;;5053463;28;20036;-94
2021/03/03 00:26:52;;;;;;;8.32;2.65;;;26.70;74.30;;;;;;5053141;28;20025;-96
2021/03/03 00:30:04;;;;;;;;;;;;;;;;;;;;;
2021/03/03 00:32:47;;;;;;;5.97;2.90;;;26.60;73.70;;;;;;5032948;28;20037;-93
2021/03/03 00:42:04;;;;;;;9.80;2.47;;;26.50;74.20;;;;;;4909880;29;20065;-95
2021/03/03 00:48:56;;;;;;;7.15;2.80;;;26.30;73.80;;;;;;5673814;22;20117;-94
2021/03/03 00:51:56;;;;;;;7.68;2.40;;;26.30;74.30;;;;;;5016127;28;20034;-91
2021/03/03 00:54:51;;;;;;;;;;;;;;;;;;;;;
2021/03/03 00:58:06;;;;;;;9.38;2.83;;;26.10;74.20;;;;;;5096100;28;20044;-91
2021/03/03 01:06:54;;;;;;;7.43;2.60;;;25.90;75.20;;;;;;5101074;28;20040;-91
2021/03/03 01:16:48;;;;;;;;;;;;;;;;;;;;;
2021/03/03 01:20:26;;;;;;;7.60;2.63;;;25.80;74.40;;;;;;5008218;28;20097;-92
2021/03/03 01:22:59;;;;;;;5.90;2.53;;;25.80;74.40;;;;;;4946804;29;20067;-93
2021/03/03 01:25:41;;;;;;;8.55;2.97;;;25.70;74.20;;;;;;4967104;29;20023;-94
2021/03/03 01:28:31;;;;;;;5.85;2.40;;;25.70;74.40;;;;;;5012765;28;20018;-92
2021/03/03 01:31:25;;;;;;;5.35;2.40;;;25.60;74.20;;;;;;4997456;28;20034;-91
2021/03/03 01:33:55;;;;;;;6.07;2.83;;;25.60;74.70;;;;;;5079801;28;20020;-91
2021/03/03 01:36:24;;;;;;;3.45;2.20;;;25.60;73.80;;;;;;5079022;28;20032;-91
2021/03/03 01:38:53;;;;;;;4.55;2.30;;;25.60;73.40;;;;;;5093243;28;20031;-93
2021/03/03 01:41:36;;;;;;;6.25;1.95;;;25.60;73.90;;;;;;5088853;28;20024;-92
2021/03/03 01:44:28;;;;;;;;;;;;;;;;;;;;;
2021/03/03 01:47:08;;;;;;;10.20;2.28;;;25.60;73.50;;;;;;5108159;28;20059;-94
2021/03/03 01:50:34;;;;;;;4.78;2.00;;;25.50;73.00;;;;;;5100919;28;20028;-89
2021/03/03 01:53:30;;;;;;;8.18;2.50;;;25.50;73.10;;;;;;5094735;28;20058;-90
2021/03/03 01:59:13;;;;;;;4.65;2.30;;;25.40;73.20;;;;;;5036969;28;20026;-86
2021/03/03 02:01:52;;;;;;;5.03;2.17;;;25.40;73.40;;;;;;5094024;28;20024;-90
2021/03/03 02:04:38;;;;;;;;;;;;;;;;;;;;;
2021/03/03 02:07:54;;;;;;;8.77;2.85;;;25.40;72.90;;;;;;5113798;28;20051;-90
2021/03/03 02:24:11;;;;;;;9.45;2.45;;;25.20;72.90;;;;;;5112974;28;20070;-93
2021/03/03 02:26:43;;;;;;;5.10;2.13;;;25.10;72.90;;;;;;5094019;28;20220;-91
2021/03/03 02:29:17;;;;;;;5.03;2.10;;;25.10;73.00;;;;;;5092062;28;20070;-92
2021/03/03 02:31:50;;;;;;;6.80;2.15;;;25.10;73.10;;;;;;5091051;28;20117;-90
2021/03/03 02:34:17;;;;;;;;;;;25.10;72.70;;;;;;5074768;28;20032;-91
2021/03/03 02:36:48;;;;;;;4.18;1.92;;;25.10;72.40;;;;;;5091130;28;19950;-91
2021/03/03 02:39:22;;;;;;;5.75;1.85;;;25.10;72.40;;;;;;5090599;28;20032;-92
2021/03/03 02:41:54;;;;;;;4.70;2.20;;;25.10;72.10;;;;;;5074825;28;20028;-91
2021/03/03 02:44:27;;;;;;;8.30;5.53;;;25.10;72.50;;;;;;5108653;28;20032;-91
2021/03/03 02:46:54;;;;;;;7.82;3.38;;;25.10;72.10;;;;;;5090750;28;20069;-92
2021/03/03 02:49:22;;;;;;;4.97;2.20;;;25.00;71.90;;;;;;5108022;28;20032;-93
2021/03/03 02:51:52;;;;;;;3.88;2.25;;;25.00;72.40;;;;;;5090027;28;20031;-91
2021/03/03 02:54:20;;;;;;;4.50;2.17;;;24.90;72.00;;;;;;5108279;28;20095;-92
2021/03/03 02:56:49;;;;;;;7.80;2.22;;;24.90;71.80;;;;;;5108034;28;20324;-92
2021/03/03 02:59:35;;;;;;;7.50;2.42;;;24.90;71.70;;;;;;5088902;28;20052;-91
2021/03/03 03:02:08;;;;;;;9.68;3.30;;;24.80;71.00;;;;;;5091837;28;20027;-93
2021/03/03 03:04:39;;;;;;;8.43;4.75;;;24.80;71.30;;;;;;5091876;28;20116;-93
2021/03/03 03:07:11;;;;;;;6.82;4.45;;;24.80;70.70;;;;;;5091465;28;20118;-94
2021/03/03 03:09:43;;;;;;;5.07;2.80;;;24.80;70.80;;;;;;5090886;28;20083;-89
2021/03/03 03:12:25;;;;;;;8.45;3.42;;;24.80;70.70;;;;;;5091288;28;20257;-93
2021/03/03 03:14:54;;;;;;;6.53;2.65;;;24.80;70.00;;;;;;5074922;28;20032;-91
2021/03/03 03:17:23;;;;;;;5.70;3.72;;;24.70;69.80;;;;;;5090781;28;20071;-92
2021/03/03 03:19:55;;;;;;;8.40;4.78;;;24.70;70.00;;;;;;5092148;28;20024;-93
2021/03/03 03:22:26;;;;;;;7.90;3.42;;;24.60;70.00;;;;;;5108868;28;20032;-93
2021/03/03 03:24:59;;;;;;;7.55;4.13;;;24.60;70.10;;;;;;5089362;28;20030;-92
2021/03/03 03:27:27;;;;;;;9.48;3.92;;;24.60;70.90;;;;;;5088674;28;20344;-92
2021/03/03 03:29:59;;;;;;;9.25;3.95;;;24.60;70.70;;;;;;5088993;28;20054;-92
2021/03/03 03:32:38;;;;;;;6.65;4.07;;;24.60;71.00;;;;;;5088776;28;20391;-93
2021/03/03 03:35:17;;;;;;;9.45;4.18;;;24.60;70.60;;;;;;5088309;28;20078;-93
2021/03/03 03:37:47;;;;;;;7.88;3.65;;;24.50;70.80;;;;;;5089971;28;20032;-93
2021/03/03 03:40:17;;;;;;;10.70;6.32;;;24.50;70.60;;;;;;5090401;28;20030;-93
2021/03/03 03:42:45;;;;;;;8.90;4.95;;;24.50;70.20;;;;;;5088869;28;20075;-94
2021/03/03 03:45:13;;;;;;;7.82;3.58;;;24.60;69.90;;;;;;5088927;28;20035;-91
2021/03/03 03:47:51;;;;;;;4.80;2.05;;;24.50;69.90;;;;;;5089451;28;20020;-91
2021/03/03 03:50:20;;;;;;;4.95;2.17;;;24.50;69.90;;;;;;5089655;28;20020;-91
2021/03/03 03:52:57;;;;;;;3.85;2.42;;;24.50;69.40;;;;;;5088664;28;20023;-89
2021/03/03 03:55:36;;;;;;;5.72;2.60;;;24.50;69.60;;;;;;5103574;28;20343;-92
2021/03/03 03:58:12;;;;;;;5.18;2.65;;;24.50;69.00;;;;;;5090327;28;20027;-92
2021/03/03 04:00:44;;;;;;;6.47;2.00;;;24.50;68.70;;;;;;5107661;28;20036;-91
2021/03/03 04:03:14;;;;;;;5.20;2.55;;;24.40;68.80;;;;;;5091512;28;20080;-92
2021/03/03 04:05:41;;;;;;;6.85;1.95;;;24.40;69.10;;;;;;5109532;28;20039;-92
2021/03/03 04:08:08;;;;;;;4.88;1.85;;;24.40;68.90;;;;;;5092986;28;20028;-92
2021/03/03 04:10:41;;;;;;;2.53;1.45;;;24.40;68.80;;;;;;5090998;28;20040;-93
2021/03/03 04:13:08;;;;;;;3.97;1.95;;;24.40;68.60;;;;;;5091062;28;20042;-91
2021/03/03 04:15:38;;;;;;;2.33;1.67;;;24.30;68.80;;;;;;5091118;28;20063;-92
2021/03/03 04:18:53;;;;;;;3.67;1.55;;;24.40;69.20;;;;;;5093103;28;20097;-91
2021/03/03 04:21:20;;;;;;;4.00;1.67;;;24.30;68.80;;;;;;5061000;28;20216;-92
2021/03/03 04:23:49;;;;;;;6.22;1.70;;;24.30;68.70;;;;;;5091312;28;20099;-89
2021/03/03 04:26:16;;;;;;;4.90;1.50;;;24.40;68.10;;;;;;5090710;28;20047;-92
2021/03/03 04:28:44;;;;;;;3.30;1.50;;;24.40;68.10;;;;;;5090716;28;20028;-93
2021/03/03 04:31:10;;;;;;;5.38;1.92;;;24.40;68.00;;;;;;5091502;28;20086;-92
2021/03/03 04:33:40;;;;;;;2.08;1.38;;;24.30;67.90;;;;;;5089607;28;20050;-92
2021/03/03 04:36:07;;;;;;;3.63;1.50;;;24.30;67.90;;;;;;5089335;28;20099;-92
2021/03/03 04:38:59;;;;;;;3.58;1.58;;;24.30;67.80;;;;;;5090324;28;20043;-92
2021/03/03 04:41:26;;;;;;;4.60;1.83;;;24.30;68.10;;;;;;5089426;28;20036;-94
2021/03/03 04:43:52;;;;;;;3.97;1.50;;;24.30;67.40;;;;;;5091274;28;20335;-94
2021/03/03 04:46:19;;;;;;;1.70;1.48;;;24.30;67.80;;;;;;5088941;28;20107;-93
2021/03/03 04:48:45;;;;;;;4.18;1.42;;;24.30;67.50;;;;;;5088544;28;20027;-92
2021/03/03 04:51:15;;;;;;;5.68;1.90;;;24.30;67.80;;;;;;5087737;28;20039;-91
2021/03/03 04:53:42;;;;;;;5.38;1.90;;;24.30;68.10;;;;;;5087675;28;20055;-90
2021/03/03 04:56:16;;;;;;;4.22;1.90;;;24.20;68.10;;;;;;5088972;28;20039;-91
2021/03/03 04:58:46;;;;;;;2.63;1.50;;;24.30;68.20;;;;;;5088224;28;20051;-92
2021/03/03 05:01:13;;;;;;;6.15;1.80;;;24.20;68.90;;;;;;5088011;28;20032;-91
2021/03/03 05:03:40;;;;;;;3.72;1.80;;;24.20;68.20;;;;;;5089240;28;20034;-92
2021/03/03 05:06:06;;;;;;;2.80;1.60;;;24.20;68.10;;;;;;5090525;28;20048;-93
2021/03/03 05:08:33;;;;;;;1.88;1.55;;;24.20;68.60;;;;;;5109612;28;20073;-92
2021/03/03 05:11:00;;;;;;;2.90;1.63;;;24.20;68.90;;;;;;5091270;28;20036;-93
2021/03/03 05:13:26;;;;;;;3.63;1.48;;;24.20;68.90;;;;;;5091942;28;20069;-94
2021/03/03 05:15:53;;;;;;;5.47;1.70;;;24.20;68.50;;;;;;5092302;28;20044;-92
2021/03/03 05:18:20;;;;;;;3.42;1.92;;;24.20;68.70;;;;;;5092091;28;20387;-92
2021/03/03 05:20:50;;;;;;;4.47;1.63;;;24.10;68.50;;;;;;5099237;28;20051;-91
2021/03/03 05:23:29;;;;;;;2.13;1.45;;;24.20;67.20;;;;;;5093179;28;20051;-92
2021/03/03 05:25:56;;;;;;;6.97;1.55;;;24.20;67.50;;;;;;5093460;28;20099;-91
2021/03/03 05:28:23;;;;;;;3.40;1.55;;;24.30;67.40;;;;;;5093338;28;20055;-93
2021/03/03 05:30:50;;;;;;;4.35;1.88;;;24.30;66.40;;;;;;5099286;28;20040;-90
2021/03/03 05:33:24;;;;;;;3.03;1.60;;;24.50;66.10;;;;;;5091995;28;20078;-93
2021/03/03 05:35:54;;;;;;;4.40;1.65;;;24.50;66.80;;;;;;5090992;28;20070;-91
2021/03/03 05:38:24;;;;;;;6.20;1.67;;;24.50;67.00;;;;;;5091421;28;20019;-91
2021/03/03 05:40:56;;;;;;;4.93;1.70;;;24.50;66.70;;;;;;5091865;28;20032;-90
2021/03/03 05:43:24;;;;;;;2.97;1.70;;;24.50;67.10;;;;;;5090012;28;20260;-91
2021/03/03 05:45:51;;;;;;;4.85;1.88;;;24.40;68.00;;;;;;5090079;28;20374;-92
2021/03/03 05:48:45;;;;;;;2.65;1.50;;;24.30;68.30;;;;;;5107808;28;20024;-91
2021/03/03 05:51:12;;;;;;;5.70;1.92;;;24.30;68.50;;;;;;5065190;28;20312;-91
2021/03/03 05:53:39;;;;;;;2.90;1.70;;;24.30;67.90;;;;;;5089474;28;20107;-92
2021/03/03 05:56:12;;;;;;;2.63;1.58;;;24.30;68.50;;;;;;5089031;28;20260;-92
2021/03/03 05:58:41;;;;;;;2.88;2.05;;;24.30;69.30;;;;;;5096040;28;20082;-92
2021/03/03 06:01:10;;;;;;;5.05;1.70;;;24.30;69.90;;;;;;5090901;28;20028;-89
2021/03/03 06:03:38;;;;;;;4.45;2.30;;;24.20;70.50;;;;;;5090194;28;20032;-92
2021/03/03 06:06:05;;;;;;;4.53;1.65;;;24.20;70.00;;;;;;5089847;28;20043;-93
2021/03/03 06:08:33;;;;;;;5.43;1.90;;;24.30;70.10;;;;;;5091183;28;20347;-94
2021/03/03 06:11:01;;;;;;;4.72;2.13;;;24.20;70.10;;;;;;5091010;28;20028;-94
2021/03/03 06:13:28;;;;;;;8.55;2.38;;;24.20;70.10;;;;;;5090083;28;20036;-94
2021/03/03 06:15:56;;;;;;;2.92;1.58;;;24.20;70.40;;;;;;5089272;28;20202;-92
2021/03/03 06:18:24;;;;;;;3.63;1.83;;;24.30;69.80;;;;;;5089871;28;20121;-94
2021/03/03 06:20:55;;;;;;;7.05;2.10;;;24.30;69.50;;;;;;5090203;28;20092;-93
2021/03/03 06:23:26;;;;;;;3.05;1.60;;;24.30;69.30;;;;;;5090286;28;20062;-94
2021/03/03 06:25:58;;;;;;;5.18;1.95;;;24.30;69.10;;;;;;5091265;28;20119;-93
2021/03/03 06:28:45;;;;;;;4.03;1.88;;;24.30;70.00;;;;;;5093771;28;20031;-94
2021/03/03 06:31:31;;;;;;;7.07;2.20;;;24.20;71.40;;;;;;5093594;28;20384;-91
2021/03/03 06:34:15;;;;;;;6.03;2.50;;;24.20;73.50;;;;;;5091515;28;20431;-93
2021/03/03 06:36:57;;;;;;;3.13;1.95;;;24.10;72.90;;;;;;5090109;28;20102;-93
2021/03/03 06:39:29;;;;;;;10.23;3.22;;;24.20;73.00;;;;;;5090633;28;20028;-90
2021/03/03 06:41:58;;;;;;;6.25;2.45;;;24.10;73.20;;;;;;5091056;28;20190;-93
2021/03/03 06:44:43;;;;;;;4.15;2.22;;;24.10;73.10;;;;;;5090707;28;20032;-92
2021/03/03 06:47:10;;;;;;;7.03;2.15;;;24.10;73.50;;;;;;5090562;28;20031;-93
2021/03/03 06:49:37;;;;;;;3.55;1.77;;;24.10;73.20;;;;;;5089608;28;20027;-91
2021/03/03 06:52:04;;;;;;;5.18;2.33;;;24.00;73.30;;;;;;5090709;28;20035;-93
2021/03/03 06:54:31;;;;;;;4.47;2.63;;;24.00;73.50;;;;;;5090940;28;20036;-92
2021/03/03 06:56:59;;;;;;;4.32;2.65;;;24.00;73.50;;;;;;5108160;28;20028;-91
2021/03/03 06:59:30;;;;;;;5.05;2.22;;;24.00;74.00;;;;;;5091128;28;20035;-92
2021/03/03 07:01:59;;;;;;;5.90;2.15;;;24.00;73.60;;;;;;5088445;28;20023;-92
2021/03/03 07:04:30;;;;;;;2.97;2.20;;;24.00;74.70;;;;;;5090244;28;20056;-91
2021/03/03 07:07:01;;;;;;;6.13;2.03;;;24.00;75.20;;;;;;5093951;28;20036;-91
2021/03/03 07:09:42;;;;;;;6.03;2.33;;;24.00;74.80;;;;;;5092334;28;20036;-89
2021/03/03 07:12:11;;;;;;;5.25;2.40;;;24.00;75.50;;;;;;5093073;28;20253;-91
2021/03/03 07:14:40;;;;;;;5.22;2.05;;;24.00;75.40;;;;;;5095253;28;20107;-93
2021/03/03 07:17:11;;;;;;;4.20;2.33;;;24.00;74.80;;;;;;5093705;28;20051;-93
2021/03/03 07:19:42;;;;;;;3.63;2.10;;;24.00;74.90;;;;;;5094685;28;20032;-92
2021/03/03 07:22:33;;;;;;;4.00;2.10;;;24.00;74.90;;;;;;5094528;28;20034;-89
2021/03/03 07:25:04;;;;;;;4.32;2.20;;;24.00;74.80;;;;;;5083753;28;20059;-92
2021/03/03 07:27:32;;;;;;;3.78;2.05;;;24.00;74.80;;;;;;5093752;28;20042;-92
2021/03/03 07:30:01;;;;;;;3.97;2.28;;;24.00;75.10;;;;;;5110629;28;20036;-90
2021/03/03 07:32:28;;;;;;;5.20;2.17;;;24.10;74.60;;;;;;5091351;28;20030;-92
2021/03/03 07:34:58;;;;;;;4.85;2.20;;;24.00;74.50;;;;;;5092774;28;20032;-89
2021/03/03 07:37:32;;;;;;;5.13;2.00;;;24.10;73.50;;;;;;5093357;28;20032;-94
2021/03/03 07:40:03;;;;;;;3.38;1.70;;;24.10;73.50;;;;;;5094027;28;20024;-94
2021/03/03 07:42:31;;;;;;;7.03;2.00;;;24.10;72.90;;;;;;5076875;28;20039;-93
2021/03/03 07:45:06;;;;;;;4.18;2.03;;;24.00;73.90;;;;;;5093304;28;20031;-92
2021/03/03 07:47:36;;;;;;;3.95;2.17;;;24.00;73.90;;;;;;5075260;28;20304;-92
2021/03/03 07:50:15;;;;;;;5.70;2.00;;;24.00;73.70;;;;;;5091643;28;20039;-91
2021/03/03 07:52:51;;;;;;;4.47;2.00;;;23.90;74.00;;;;;;5109687;28;20036;-92
2021/03/03 07:55:18;;;;;;;4.10;1.90;;;23.90;74.50;;;;;;5090264;28;20028;-91
2021/03/03 07:57:48;;;;;;;6.05;2.15;;;23.80;74.80;;;;;;5089839;28;20024;-94
2021/03/03 08:00:27;;;;;;;3.83;1.92;;;23.80;74.40;;;;;;5089746;28;20054;-92
2021/03/03 08:02:56;;;;;;;2.60;1.80;;;23.80;73.80;;;;;;5091548;28;20060;-91
2021/03/03 08:05:36;;;;;;;4.32;1.85;;;23.80;74.00;;;;;;5092338;28;20102;-90
2021/03/03 08:08:17;;;;;;;5.22;1.80;;;23.80;74.00;;;;;;5091688;28;20028;-94
2021/03/03 08:10:46;;;;;;;3.22;1.98;;;23.70;74.20;;;;;;5088896;28;20035;-92
2021/03/03 08:13:31;;;;;;;3.92;1.77;;;23.70;74.00;;;;;;5088354;28;20027;-93
2021/03/03 08:16:04;;;;;;;4.72;2.15;;;23.70;74.10;;;;;;5087383;28;20103;-92
2021/03/03 08:18:37;;;;;;;4.85;2.05;;;23.70;73.90;;;;;;5088077;28;20584;-93
2021/03/03 08:21:11;;;;;;;3.97;2.10;;;23.70;73.30;;;;;;5087920;28;20035;-94
2021/03/03 08:23:42;;;;;;;4.18;1.98;;;23.70;73.00;;;;;;5088167;28;20035;-95
2021/03/03 08:26:18;;;;;;;2.88;1.90;;;23.70;72.60;;;;;;5088468;28;20028;-94
2021/03/03 08:28:46;;;;;;;3.65;1.65;;;23.70;72.50;;;;;;5087758;28;20064;-95
2021/03/03 08:31:16;;;;;;;3.83;1.65;;;23.70;72.30;;;;;;5088379;28;20028;-95
2021/03/03 08:33:49;;;;;;;3.85;1.70;;;23.70;72.10;;;;;;5089201;28;20043;-92
2021/03/03 08:36:22;;;;;;;5.45;1.92;;;23.60;71.80;;;;;;5089189;28;20064;-92
2021/03/03 08:39:01;;;;;;;3.00;1.50;;;23.60;71.50;;;;;;5090016;28;20316;-92
2021/03/03 08:41:32;;;;;;;2.80;1.80;;;23.60;70.70;;;;;;5091590;28;20054;-92
2021/03/03 08:44:12;;;;;;;5.50;2.20;;;23.50;70.20;;;;;;5089360;28;20221;-95
2021/03/03 08:46:39;;;;;;;2.50;1.70;;;23.60;69.40;;;;;;5089803;28;20039;-92
2021/03/03 08:49:05;;;;;;;3.80;1.80;;;23.60;69.00;;;;;;5089052;28;20209;-91
2021/03/03 08:51:42;;;;;;;2.90;1.85;;;23.60;68.80;;;;;;5088878;28;20027;-91
2021/03/03 08:54:20;;;;;;;4.95;2.05;;;23.60;69.10;;;;;;5106960;28;20047;-94
2021/03/03 08:56:49;;;;;;;5.07;1.75;;;23.60;68.90;;;;;;5088814;28;20031;-91
2021/03/03 08:59:41;;;;;;;3.35;1.88;;;23.50;69.40;;;;;;5089111;28;20013;-89
2021/03/03 09:02:15;;;;;;;3.27;2.20;;;23.50;70.50;;;;;;5087060;28;20038;-92
2021/03/03 09:04:47;;;;;;;2.53;1.77;;;23.40;71.10;;;;;;5104711;28;20036;-91
2021/03/03 09:07:26;;;;;;;4.32;1.90;;;23.40;71.70;;;;;;5086624;28;20055;-91
2021/03/03 09:09:58;;;;;;;4.70;1.92;;;23.40;72.40;;;;;;5087204;28;20281;-91
2021/03/03 09:12:26;;;;;;;;;;;23.30;72.10;;;;;;5086800;28;20103;-92
2021/03/03 09:14:54;;;;;;;4.53;1.95;;;23.30;70.80;;;;;;5104457;28;20242;-89
2021/03/03 09:17:29;;;;;;;4.88;1.95;;;23.40;70.10;;;;;;5104815;28;20024;-91
2021/03/03 09:20:02;;;;;;;4.70;1.90;;;23.40;70.70;;;;;;5108569;28;20020;-92
2021/03/03 09:22:41;;;;;;;6.68;1.95;;;23.40;71.00;;;;;;5092770;28;20040;-88
2021/03/03 09:25:22;;;;;;;3.63;2.05;;;23.50;70.60;;;;;;5109945;28;20032;-90
2021/03/03 09:27:54;;;;;;;3.80;1.80;;;23.50;70.60;;;;;;5072115;28;20043;-91
2021/03/03 09:30:22;;;;;;;4.10;1.75;;;23.50;70.70;;;;;;5087146;28;20032;-91
2021/03/03 09:32:49;;;;;;;5.93;1.98;;;23.40;71.40;;;;;;5086497;28;20055;-90
2021/03/03 09:35:26;;;;;;;8.82;2.15;;;23.40;71.40;;;;;;5104533;28;20024;-91
2021/03/03 09:37:53;;;;;;;6.82;1.90;;;23.40;72.60;;;;;;5086577;28;20032;-91
2021/03/03 09:40:26;;;;;;;3.88;1.92;;;23.30;72.20;;;;;;5086708;28;20370;-90
2021/03/03 09:42:52;;;;;;;;;;;23.20;72.50;;;;;;5086254;28;20099;-91
2021/03/03 09:45:23;;;;;;;3.13;1.88;;;23.20;72.20;;;;;;5086474;28;19904;-90
2021/03/03 09:47:50;;;;;;;2.92;1.85;;;23.20;71.40;;;;;;5086373;28;20316;-90
2021/03/03 09:50:21;;;;;;;5.28;1.88;;;23.20;71.40;;;;;;5087139;28;20035;-91
2021/03/03 09:52:53;;;;;;;5.15;2.30;;;23.10;71.40;;;;;;5089432;28;20055;-90
2021/03/03 09:55:22;;;;;;;3.67;1.63;;;23.10;72.00;;;;;;5089636;28;20070;-90
2021/03/03 09:57:59;;;;;;;3.22;1.80;;;23.10;72.70;;;;;;5089679;28;20103;-91
2021/03/03 10:00:30;;;;;;;3.72;2.03;;;23.00;73.10;;;;;;5089756;28;20031;-91
2021/03/03 10:03:01;;;;;;;3.70;2.17;;;23.00;73.60;;;;;;5089738;28;20028;-90
2021/03/03 10:05:30;;;;;;;2.58;1.77;;;22.90;73.50;;;;;;5089418;28;20044;-90
2021/03/03 10:07:59;;;;;;;6.43;2.17;;;22.90;73.70;;;;;;5090231;28;20345;-91
2021/03/03 10:10:29;;;;;;;4.93;2.38;;;22.90;73.70;;;;;;5089527;28;20024;-90
2021/03/03 10:12:56;;;;;;;6.57;1.85;;;22.80;74.10;;;;;;5072472;28;20038;-89
2021/03/03 10:15:36;;;;;;;3.92;1.80;;;22.80;74.30;;;;;;5089575;28;20028;-91
2021/03/03 10:18:08;;;;;;;5.43;1.90;;;22.80;74.40;;;;;;5107127;28;20032;-88
2021/03/03 10:20:49;;;;;;;8.23;2.45;;;22.70;74.70;;;;;;5072715;28;20023;-91
2021/03/03 10:23:21;;;;;;;3.80;2.17;;;22.70;74.80;;;;;;5089366;28;20032;-91
2021/03/03 10:26:05;;;;;;;4.70;1.90;;;22.60;74.80;;;;;;5089577;28;20031;-92
2021/03/03 10:28:32;;;;;;;5.18;2.22;;;22.60;74.90;;;;;;5089972;28;20039;-91
2021/03/03 10:31:02;;;;;;;6.63;2.78;;;22.60;74.30;;;;;;5107271;28;20043;-93
2021/03/03 10:33:39;;;;;;;5.25;2.47;;;22.70;74.60;;;;;;5091670;28;20111;-91
2021/03/03 10:36:16;;;;;;;5.55;2.05;;;22.60;74.50;;;;;;5091837;28;20236;-93
2021/03/03 10:38:54;;;;;;;7.00;2.70;;;22.60;74.70;;;;;;5090106;28;20035;-93
2021/03/03 10:41:24;;;;;;;44.53;5.53;;;22.50;75.00;;;;;;5088728;28;20020;-92
2021/03/03 10:43:51;;;;;;;18.88;4.53;;;22.40;75.10;;;;;;5108001;28;20044;-92
2021/03/03 10:46:23;;;;;;;21.70;6.70;;;22.50;75.40;;;;;;5089660;28;20362;-94
2021/03/03 10:48:53;;;;;;;16.85;4.40;;;22.50;75.60;;;;;;5090197;28;20047;-93
2021/03/03 10:51:21;;;;;;;56.65;12.77;;;22.30;76.10;;;;;;5075618;28;20198;-90
2021/03/03 10:53:59;;;;;;;43.10;11.73;;;22.30;76.80;;;;;;5107692;28;20051;-90
2021/03/03 10:56:31;;;;;;;31.83;9.05;;;22.30;76.40;;;;;;5107328;28;20032;-93
2021/03/03 10:59:00;;;;;;;26.95;7.90;;;22.30;78.10;;;;;;5091138;28;20042;-94
2021/03/03 11:01:44;;;;;;;15.40;4.97;;;22.20;76.80;;;;;;5090712;28;20065;-93
2021/03/03 11:04:11;;;;;;;13.18;4.75;;;22.20;76.70;;;;;;5096607;28;20036;-93
2021/03/03 11:06:38;;;;;;;9.05;3.67;;;22.20;77.70;;;;;;5093991;28;20052;-90
2021/03/03 11:09:07;;;;;;;11.57;3.67;;;22.10;76.30;;;;;;5110815;28;20316;-91
2021/03/03 11:11:34;;;;;;;5.18;2.10;;;22.20;77.00;;;;;;5096419;28;20049;-93
2021/03/03 11:14:01;;;;;;;5.57;1.98;;;22.20;74.50;;;;;;5096714;28;20126;-91
2021/03/03 11:16:27;;;;;;;4.88;1.80;;;22.30;73.80;;;;;;5096707;28;20051;-90
2021/03/03 11:18:54;;;;;;;4.63;1.67;;;22.40;72.80;;;;;;5093572;28;20032;-93
2021/03/03 11:21:21;;;;;;;4.65;2.03;;;22.50;72.60;;;;;;5093694;28;20046;-89
2021/03/03 11:23:47;;;;;;;3.50;1.80;;;22.60;71.30;;;;;;5097341;28;20028;-89
2021/03/03 11:26:16;;;;;;;7.75;1.95;;;22.70;70.80;;;;;;5099024;28;20323;-92
2021/03/03 11:28:42;;;;;;;4.93;2.10;;;22.80;70.20;;;;;;5079828;28;20046;-91
2021/03/03 11:31:09;;;;;;;8.82;2.47;;;22.90;70.10;;;;;;5079100;28;20032;-89
2021/03/03 11:33:38;;;;;;;8.75;2.22;;;23.00;69.20;;;;;;5096032;28;20067;-93
2021/03/03 11:36:05;;;;;;;25.65;4.30;;;23.10;69.50;;;;;;5094820;28;20126;-93
2021/03/03 11:38:34;;;;;;;14.45;2.33;;;23.20;70.10;;;;;;5109518;28;20035;-89
2021/03/03 11:41:04;;;;;;;4.53;1.60;;;23.40;70.00;;;;;;5091248;28;20028;-92
2021/03/03 11:43:31;;;;;;;5.30;1.92;;;23.50;68.70;;;;;;5091966;28;20039;-89
2021/03/03 11:45:59;;;;;;;7.90;2.10;;;23.80;69.30;;;;;;5090859;28;20023;-92
2021/03/03 11:48:29;;;;;;;3.65;2.33;;;23.80;68.60;;;;;;5091676;28;20083;-93
2021/03/03 11:51:00;;;;;;;7.13;2.58;;;23.80;69.00;;;;;;5090354;28;20028;-90
2021/03/03 11:53:26;;;;;;;7.03;1.95;;;23.80;70.40;;;;;;5109290;28;20248;-90
2021/03/03 11:55:54;;;;;;;10.07;2.45;;;23.80;69.90;;;;;;5090661;28;20047;-90
2021/03/03 11:58:20;;;;;;;4.35;2.20;;;23.80;70.90;;;;;;5108198;28;20091;-92
2021/03/03 12:00:47;;;;;;;5.28;2.35;;;23.80;71.40;;;;;;5088225;28;20024;-93
2021/03/03 12:03:14;;;;;;;3.80;2.20;;;23.80;72.10;;;;;;5089843;28;20266;-92
2021/03/03 12:05:41;;;;;;;9.55;2.30;;;23.90;71.90;;;;;;5091984;28;20055;-92
2021/03/03 12:08:08;;;;;;;6.65;2.80;;;24.00;71.90;;;;;;5088263;28;20086;-91
2021/03/03 12:10:36;;;;;;;8.15;2.90;;;24.10;72.40;;;;;;5088463;28;20027;-89
2021/03/03 12:13:04;;;;;;;7.75;2.05;;;24.20;72.00;;;;;;5086315;28;20048;-89
2021/03/03 12:15:31;;;;;;;7.80;2.83;;;24.20;71.20;;;;;;5086428;28;20204;-90
2021/03/03 12:17:58;;;;;;;9.65;2.90;;;24.20;71.70;;;;;;5104934;28;20070;-93
2021/03/03 12:20:27;;;;;;;5.35;2.30;;;24.30;72.10;;;;;;5086249;28;20074;-92
2021/03/03 12:22:57;;;;;;;7.35;2.65;;;24.40;71.60;;;;;;5086661;28;20111;-93
2021/03/03 12:25:27;;;;;;;3.83;2.55;;;24.50;71.60;;;;;;5086675;28;20019;-91
2021/03/03 12:27:53;;;;;;;6.13;2.00;;;24.60;72.20;;;;;;5090908;28;20034;-91
2021/03/03 12:30:21;;;;;;;5.03;2.13;;;24.80;72.00;;;;;;5090076;28;20020;-91
2021/03/03 12:32:58;;;;;;;7.57;4.30;;;25.00;72.40;;;;;;5091018;28;20039;-91
2021/03/03 12:35:27;;;;;;;6.95;2.90;;;25.20;72.00;;;;;;5109394;28;20032;-95
2021/03/03 12:37:54;;;;;;;6.25;2.80;;;25.30;71.20;;;;;;5075262;28;20316;-91
2021/03/03 12:40:21;;;;;;;9.65;2.55;;;25.40;71.10;;;;;;5092109;28;20036;-93
2021/03/03 12:42:48;;;;;;;5.78;3.08;;;25.50;71.10;;;;;;5075839;28;20032;-90
2021/03/03 12:45:17;;;;;;;6.82;2.50;;;25.60;70.80;;;;;;5093400;28;20098;-92
2021/03/03 12:47:44;;;;;;;3.42;2.50;;;25.70;70.30;;;;;;5090368;28;20036;-90
2021/03/03 12:50:20;;;;;;;4.55;2.50;;;25.80;68.70;;;;;;5092606;28;20027;-92
2021/03/03 12:52:47;;;;;;;9.25;2.38;;;26.00;68.50;;;;;;5090210;28;20036;-91
2021/03/03 12:55:20;;;;;;;7.95;3.40;;;26.10;67.60;;;;;;5093045;28;20024;-93
2021/03/03 12:57:47;;;;;;;6.35;3.05;;;26.40;66.90;;;;;;5094400;28;20032;-92
2021/03/03 13:00:20;;;;;;;4.00;2.17;;;26.60;65.70;;;;;;5094505;28;20055;-91
2021/03/03 13:03:09;;;;;;;5.03;2.00;;;26.70;64.10;;;;;;5114290;28;20028;-91
2021/03/03 13:05:58;;;;;;;3.25;2.00;;;26.80;63.60;;;;;;5095104;28;20040;-93
2021/03/03 13:08:24;;;;;;;9.48;2.20;;;26.80;63.20;;;;;;5080951;28;20035;-92
2021/03/03 13:10:52;;;;;;;9.82;2.35;;;26.80;63.30;;;;;;5095209;28;20028;-93
2021/03/03 13:13:19;;;;;;;4.38;2.15;;;26.80;62.70;;;;;;5094043;28;20101;-93
2021/03/03 13:15:46;;;;;;;4.82;1.95;;;27.00;61.70;;;;;;5089467;28;20028;-90
2021/03/03 13:18:25;;;;;;;3.53;1.67;;;27.10;62.10;;;;;;5093718;28;20032;-94
2021/03/03 13:20:53;;;;;;;3.30;2.13;;;27.30;60.30;;;;;;5079436;28;20095;-93
2021/03/03 13:23:22;;;;;;;3.42;1.95;;;27.70;60.20;;;;;;5093167;28;20032;-92
2021/03/03 13:25:55;;;;;;;4.43;1.92;;;27.80;58.90;;;;;;5077764;28;20096;-88
2021/03/03 13:28:24;;;;;;;13.68;2.90;;;28.00;60.40;;;;;;5094258;28;20320;-91
2021/03/03 13:30:54;;;;;;;6.50;1.77;;;28.20;60.20;;;;;;5092931;28;20028;-92
2021/03/03 13:33:21;;;;;;;4.32;1.90;;;28.40;58.60;;;;;;5092646;28;20036;-93
2021/03/03 13:35:47;;;;;;;4.13;1.98;;;28.50;58.70;;;;;;5093812;28;20034;-92
2021/03/03 13:38:14;;;;;;;5.88;2.05;;;28.60;58.70;;;;;;5092584;28;20308;-90
2021/03/03 13:40:44;;;;;;;3.88;2.00;;;28.90;58.40;;;;;;5110329;28;20030;-91
2021/03/03 13:43:15;;;;;;;3.83;2.17;;;29.00;59.10;;;;;;5094381;28;20519;-91
2021/03/03 13:45:44;;;;;;;4.63;1.77;;;29.00;58.20;;;;;;5111734;28;20039;-92
2021/03/03 13:48:13;;;;;;;11.65;2.78;;;29.20;57.70;;;;;;5094218;28;20032;-88
2021/03/03 13:50:40;;;;;;;5.40;2.20;;;29.20;58.20;;;;;;5111489;28;20038;-89
2021/03/03 13:53:07;;;;;;;6.60;2.33;;;29.30;58.60;;;;;;5095803;28;20255;-90
2021/03/03 13:56:00;;;;;;;3.33;2.13;;;29.70;57.10;;;;;;5108305;28;20066;-90
2021/03/03 13:58:38;;;;;;;4.47;2.13;;;30.00;57.00;;;;;;5081738;28;20024;-92
2021/03/03 14:01:05;;;;;;;5.63;2.22;;;30.00;56.70;;;;;;5094782;28;20065;-92
2021/03/03 14:03:50;;;;;;;7.25;2.67;;;30.00;56.10;;;;;;5091191;28;20107;-92
2021/03/03 14:06:17;;;;;;;4.03;2.38;;;30.40;56.60;;;;;;5073972;28;20063;-93
2021/03/03 14:08:43;;;;;;;5.25;2.88;;;30.80;56.40;;;;;;5088422;28;20028;-93
2021/03/03 14:11:22;;;;;;;6.35;2.58;;;30.90;55.30;;;;;;5088910;28;20028;-87
2021/03/03 14:13:51;;;;;;;5.10;2.65;;;31.00;54.40;;;;;;5089712;28;20034;-90
2021/03/03 14:16:21;;;;;;;5.93;2.80;;;31.20;54.50;;;;;;5094264;28;20024;-87
2021/03/03 14:19:09;;;;;;;5.18;3.08;;;31.30;55.10;;;;;;5085988;28;20093;-88
2021/03/03 14:21:35;;;;;;;7.47;3.05;;;31.40;54.40;;;;;;5076438;28;20055;-90